Time;durP1;ratioP1;P1;durP2;ratioP2;P2;SDS_P1;SDS_P2;PMS_P1;PMS_P2;Temp;Humidity;BMP_temperature;BMP_pressure;BME280_temperature;BME280_humidity;BME280_pressure;Samples;Min_cycle;Max_cycle;Signal;HPM_P1;HPM_P2
2021/04/05 00:02:13;;;;;;;13.60;7.50;;;22.90;26.50;;;;;;6190720;28;81320;-66
2021/04/05 00:05:13;;;;;;;11.60;7.18;;;22.90;26.70;;;;;;6197094;28;80583;-66
2021/04/05 00:08:14;;;;;;;11.75;7.13;;;22.90;26.50;;;;;;6196880;28;80841;-66
2021/04/05 00:11:14;;;;;;;14.15;7.40;;;22.90;26.50;;;;;;6193032;28;80701;-66
2021/04/05 00:14:15;;;;;;;11.88;7.47;;;22.90;26.30;;;;;;6199156;28;86471;-66
2021/04/05 00:17:16;;;;;;;15.32;7.90;;;22.90;26.40;;;;;;6199062;27;80580;-66
2021/04/05 00:20:17;;;;;;;13.95;7.68;;;22.90;26.20;;;;;;6204694;27;80434;-66
2021/04/05 00:23:17;;;;;;;13.90;7.18;;;22.90;26.20;;;;;;6200311;27;82042;-66
2021/04/05 00:26:18;;;;;;;11.50;7.03;;;22.90;26.20;;;;;;6206663;28;80403;-66
2021/04/05 00:29:19;;;;;;;10.25;6.57;;;22.90;26.20;;;;;;6201195;27;81634;-66
2021/04/05 00:32:19;;;;;;;11.70;7.22;;;22.90;26.30;;;;;;6215566;27;80523;-66
2021/04/05 00:35:20;;;;;;;13.30;6.57;;;22.90;26.20;;;;;;6208947;28;82829;-66
2021/04/05 00:38:20;;;;;;;10.73;6.13;;;22.90;26.20;;;;;;6204376;27;80696;-66
2021/04/05 00:41:21;;;;;;;10.02;6.63;;;22.90;26.30;;;;;;6202873;28;80869;-65
2021/04/05 00:44:21;;;;;;;13.00;7.07;;;22.90;26.20;;;;;;6224008;28;80593;-67
2021/04/05 00:47:22;;;;;;;11.35;6.20;;;22.90;26.30;;;;;;6216907;27;84930;-66
2021/04/05 00:50:22;;;;;;;12.98;6.47;;;22.90;26.60;;;;;;6199749;28;83346;-66
2021/04/05 00:53:23;;;;;;;10.48;6.43;;;22.90;26.20;;;;;;6202536;28;80716;-66
2021/04/05 00:56:23;;;;;;;10.13;5.78;;;22.90;26.30;;;;;;6200226;28;82849;-67
2021/04/05 00:59:24;;;;;;;9.70;5.65;;;22.90;26.30;;;;;;6242231;27;80450;-67
2021/04/05 01:02:25;;;;;;;11.45;6.93;;;22.80;26.20;;;;;;6211610;28;85298;-68
2021/04/05 01:05:25;;;;;;;13.20;6.18;;;22.80;26.30;;;;;;6193809;28;82009;-66
2021/04/05 01:08:26;;;;;;;10.32;5.90;;;22.80;26.70;;;;;;6202309;28;81848;-67
2021/04/05 01:11:26;;;;;;;10.50;5.63;;;22.80;26.30;;;;;;6205091;28;80421;-67
2021/04/05 01:14:27;;;;;;;11.75;6.80;;;22.80;26.40;;;;;;6202448;28;80931;-67
2021/04/05 01:17:27;;;;;;;10.35;5.93;;;22.80;26.50;;;;;;6207795;28;80934;-67
2021/04/05 01:20:28;;;;;;;10.82;5.85;;;22.80;26.70;;;;;;6202041;28;80709;-67
2021/04/05 01:23:28;;;;;;;12.48;6.28;;;22.80;26.40;;;;;;6210216;28;81626;-67
2021/04/05 01:26:33;;;;;;;10.35;5.63;;;22.80;26.70;;;;;;6173681;27;81272;-67
2021/04/05 01:29:33;;;;;;;10.55;6.20;;;22.80;26.60;;;;;;6217574;28;80748;-67
2021/04/05 01:32:34;;;;;;;10.60;5.70;;;22.80;26.40;;;;;;6201820;27;80804;-68
2021/04/05 01:35:34;;;;;;;11.55;6.03;;;22.80;26.70;;;;;;6201603;27;80877;-67
2021/04/05 01:38:35;;;;;;;13.30;6.07;;;22.80;26.40;;;;;;6198789;28;81073;-67
2021/04/05 01:41:35;;;;;;;9.98;5.43;;;22.80;26.90;;;;;;6201417;28;80808;-67
2021/04/05 01:44:36;;;;;;;10.52;5.50;;;22.80;26.70;;;;;;6192981;28;80604;-66
2021/04/05 01:47:36;;;;;;;10.60;5.88;;;22.80;26.80;;;;;;6197113;28;80830;-67
2021/04/05 01:50:37;;;;;;;10.55;5.72;;;22.80;26.50;;;;;;6216924;27;81530;-67
2021/04/05 01:53:37;;;;;;;10.38;5.63;;;22.80;26.60;;;;;;6218153;27;80135;-67
2021/04/05 01:56:38;;;;;;;8.52;5.60;;;22.80;26.70;;;;;;6209543;28;82633;-68
2021/04/05 01:59:38;;;;;;;11.10;6.47;;;22.80;26.60;;;;;;6193264;27;80375;-67
2021/04/05 02:02:39;;;;;;;9.95;5.68;;;22.80;26.70;;;;;;6191951;28;84143;-67
2021/04/05 02:05:39;;;;;;;8.30;5.25;;;22.70;26.90;;;;;;6191319;27;80025;-67
2021/04/05 02:08:40;;;;;;;8.02;5.30;;;22.80;26.70;;;;;;6195463;28;81135;-67
2021/04/05 02:11:40;;;;;;;10.15;5.70;;;22.70;26.60;;;;;;6188855;27;80769;-67
2021/04/05 02:14:41;;;;;;;8.20;5.65;;;22.70;26.80;;;;;;6208139;28;83092;-66
2021/04/05 02:17:42;;;;;;;10.32;5.60;;;22.80;26.60;;;;;;6213232;28;87138;-66
2021/04/05 02:20:42;;;;;;;7.35;5.13;;;22.80;26.70;;;;;;6215674;28;80792;-66
2021/04/05 02:23:43;;;;;;;10.52;5.07;;;22.80;26.70;;;;;;6200082;28;80868;-66
2021/04/05 02:26:43;;;;;;;9.88;5.28;;;22.80;26.50;;;;;;6197413;28;80904;-67
2021/04/05 02:29:44;;;;;;;7.93;4.68;;;22.80;26.60;;;;;;6214097;28;80758;-67
2021/04/05 02:32:44;;;;;;;8.32;5.57;;;22.80;26.80;;;;;;6222825;27;80540;-67
2021/04/05 02:35:45;;;;;;;8.30;4.93;;;22.80;26.50;;;;;;6200280;28;83129;-67
2021/04/05 02:38:45;;;;;;;10.15;4.60;;;22.80;26.60;;;;;;6191644;28;81092;-67
2021/04/05 02:41:46;;;;;;;9.90;5.47;;;22.80;26.60;;;;;;6195777;28;80733;-67
2021/04/05 02:44:47;;;;;;;8.60;4.72;;;22.80;26.70;;;;;;6203640;28;82449;-67
2021/04/05 02:47:47;;;;;;;8.45;4.70;;;22.80;26.80;;;;;;6195577;28;80751;-67
2021/04/05 02:50:48;;;;;;;9.52;4.72;;;22.80;26.50;;;;;;6219597;28;81970;-66
2021/04/05 02:53:49;;;;;;;8.40;4.65;;;22.80;26.80;;;;;;6205328;27;80787;-67
2021/04/05 02:56:49;;;;;;;7.10;4.68;;;22.70;27.00;;;;;;6198799;27;80802;-67
2021/04/05 02:59:50;;;;;;;9.05;5.05;;;22.80;27.10;;;;;;6203545;27;80625;-67
2021/04/05 03:02:50;;;;;;;8.68;5.38;;;22.70;26.80;;;;;;6216831;28;82050;-66
2021/04/05 03:05:51;;;;;;;7.72;4.50;;;22.70;27.10;;;;;;6200131;27;81483;-66
2021/04/05 03:08:52;;;;;;;6.80;4.20;;;22.70;27.00;;;;;;6202792;27;81063;-67
2021/04/05 03:11:54;;;;;;;7.00;4.20;;;22.80;27.00;;;;;;6213135;28;80132;-66
2021/04/05 03:14:55;;;;;;;7.53;4.60;;;22.80;27.00;;;;;;6196194;28;82920;-67
2021/04/05 03:17:55;;;;;;;7.00;4.45;;;22.80;26.80;;;;;;6194464;28;81018;-67
2021/04/05 03:20:56;;;;;;;7.60;4.15;;;22.80;26.30;;;;;;6211983;28;81414;-67
2021/04/05 03:23:56;;;;;;;7.47;4.45;;;22.90;26.20;;;;;;6223493;28;80468;-68
2021/04/05 03:26:57;;;;;;;7.45;4.32;;;22.80;26.40;;;;;;6206920;27;81470;-68
2021/04/05 03:29:57;;;;;;;6.97;4.18;;;22.80;26.20;;;;;;6205517;27;81770;-68
2021/04/05 03:32:58;;;;;;;5.78;4.18;;;22.80;26.30;;;;;;6211915;27;83520;-68
2021/04/05 03:35:59;;;;;;;6.95;4.22;;;22.80;26.20;;;;;;6208539;27;80617;-68
2021/04/05 03:38:59;;;;;;;7.35;4.32;;;22.90;26.00;;;;;;6204904;28;82194;-67
2021/04/05 03:42:00;;;;;;;6.63;3.90;;;22.90;26.00;;;;;;6211557;27;81806;-67
2021/04/05 03:45:01;;;;;;;6.57;4.00;;;23.00;26.00;;;;;;6194833;28;80776;-67
2021/04/05 03:48:01;;;;;;;6.85;4.10;;;23.00;26.00;;;;;;6196138;28;80269;-67
2021/04/05 03:51:02;;;;;;;8.13;4.45;;;23.00;26.00;;;;;;6218606;28;80326;-67
2021/04/05 03:54:03;;;;;;;6.05;3.88;;;23.00;26.10;;;;;;6205495;27;80762;-67
2021/04/05 03:57:03;;;;;;;6.97;3.95;;;23.10;26.10;;;;;;6197424;27;81199;-66
2021/04/05 04:00:07;;;;;;;6.10;3.75;;;23.10;26.10;;;;;;6200116;28;80879;-67
2021/04/05 04:03:08;;;;;;;7.85;4.47;;;23.10;26.00;;;;;;6214857;27;82106;-67
2021/04/05 04:06:09;;;;;;;6.95;4.03;;;23.10;26.00;;;;;;6219275;27;81437;-65
2021/04/05 04:09:09;;;;;;;6.05;3.80;;;23.20;26.00;;;;;;6217750;28;83853;-66
2021/04/05 04:12:10;;;;;;;6.28;3.92;;;23.10;25.90;;;;;;6222564;27;81279;-66
2021/04/05 04:15:10;;;;;;;6.85;4.00;;;23.20;25.90;;;;;;6226063;28;80614;-66
2021/04/05 04:18:11;;;;;;;8.00;3.80;;;23.20;25.70;;;;;;6221093;28;80518;-67
2021/04/05 04:21:12;;;;;;;6.78;4.18;;;23.20;25.60;;;;;;6204470;27;80481;-68
2021/04/05 04:24:12;;;;;;;6.15;4.07;;;23.20;25.50;;;;;;6202334;28;80572;-67
2021/04/05 04:27:13;;;;;;;4.82;3.53;;;23.20;25.50;;;;;;6202269;28;81411;-66
2021/04/05 04:30:13;;;;;;;6.38;3.80;;;23.20;25.50;;;;;;6210975;28;82938;-67
2021/04/05 04:33:14;;;;;;;6.72;4.13;;;23.20;25.50;;;;;;6193379;28;80843;-68
2021/04/05 04:36:14;;;;;;;7.25;3.80;;;23.30;25.60;;;;;;6216671;28;81549;-66
2021/04/05 04:39:15;;;;;;;5.82;3.53;;;23.20;25.50;;;;;;6181769;27;81671;-63
2021/04/05 04:42:15;;;;;;;5.32;3.47;;;23.20;25.60;;;;;;6196012;28;82815;-64
2021/04/05 04:45:16;;;;;;;5.43;3.38;;;23.30;25.60;;;;;;6199314;28;80837;-66
2021/04/05 04:48:16;;;;;;;5.85;3.13;;;23.30;25.60;;;;;;6220162;27;81605;-64
2021/04/05 04:51:17;;;;;;;6.03;3.53;;;23.30;26.00;;;;;;6198037;27;81351;-69
2021/04/05 04:54:17;;;;;;;4.93;3.40;;;23.30;26.00;;;;;;6197930;28;80475;-66
2021/04/05 04:57:18;;;;;;;11.50;3.40;;;23.30;26.00;;;;;;6200631;28;80386;-66
2021/04/05 05:00:19;;;;;;;6.50;4.00;;;23.30;26.00;;;;;;6202075;27;81246;-67
2021/04/05 05:03:19;;;;;;;5.47;3.70;;;23.30;26.70;;;;;;6177122;27;81619;-65
2021/04/05 05:06:20;;;;;;;4.00;2.72;;;23.30;27.00;;;;;;6216803;28;81477;-67
2021/04/05 05:09:20;;;;;;;6.43;3.22;;;23.30;27.10;;;;;;6190339;27;81888;-66
2021/04/05 05:12:21;;;;;;;7.97;3.65;;;23.30;27.00;;;;;;6196900;27;80919;-67
2021/04/05 05:15:21;;;;;;;5.85;3.15;;;23.30;26.90;;;;;;6196432;28;81533;-66
2021/04/05 05:18:22;;;;;;;5.10;3.50;;;23.30;27.20;;;;;;6190184;28;82880;-66
2021/04/05 05:21:23;;;;;;;5.35;3.45;;;23.30;26.50;;;;;;6222832;28;80769;-66
2021/04/05 05:24:23;;;;;;;7.53;3.83;;;23.30;26.30;;;;;;6205334;28;80694;-67
2021/04/05 05:27:24;;;;;;;5.13;3.20;;;23.30;26.20;;;;;;6212377;27;81049;-66
2021/04/05 05:30:25;;;;;;;6.97;3.50;;;23.40;26.50;;;;;;6184603;28;80451;-65
2021/04/05 05:33:25;;;;;;;5.78;3.28;;;23.30;26.20;;;;;;6198382;27;80512;-65
2021/04/05 05:36:26;;;;;;;5.57;3.17;;;23.30;26.50;;;;;;6200168;28;80728;-65
2021/04/05 05:39:26;;;;;;;7.90;3.45;;;23.30;26.40;;;;;;6199939;28;81381;-66
2021/04/05 05:42:27;;;;;;;5.63;2.72;;;23.30;26.30;;;;;;6203054;27;80674;-66
2021/04/05 05:45:27;;;;;;;6.07;3.63;;;23.30;26.30;;;;;;6203014;28;80416;-65
2021/04/05 05:48:28;;;;;;;6.75;3.25;;;23.30;26.90;;;;;;6196943;27;80854;-66
2021/04/05 05:51:28;;;;;;;7.28;3.20;;;23.30;27.40;;;;;;6201387;28;80886;-67
2021/04/05 05:54:29;;;;;;;9.45;3.20;;;23.30;27.20;;;;;;6217371;28;80083;-67
2021/04/05 05:57:30;;;;;;;6.25;3.10;;;23.30;27.30;;;;;;6225271;28;83359;-65
2021/04/05 06:00:30;;;;;;;5.55;3.25;;;23.30;27.50;;;;;;6197198;28;81038;-66
2021/04/05 06:03:31;;;;;;;5.68;3.03;;;23.30;27.70;;;;;;6204965;27;81147;-65
2021/04/05 06:06:32;;;;;;;7.45;3.47;;;23.30;27.80;;;;;;6201426;28;81554;-66
2021/04/05 06:09:34;;;;;;;5.63;3.03;;;23.40;28.40;;;;;;6212670;27;81187;-65
2021/04/05 06:12:35;;;;;;;4.20;2.95;;;23.40;27.90;;;;;;6197106;28;82199;-64
2021/04/05 06:15:36;;;;;;;4.60;3.03;;;23.40;29.20;;;;;;6213208;28;81269;-65
2021/04/05 06:18:36;;;;;;;6.50;4.03;;;23.40;28.40;;;;;;6218369;27;80685;-67
2021/04/05 06:21:37;;;;;;;6.18;3.40;;;23.40;29.50;;;;;;6209940;27;80885;-63
2021/04/05 06:24:37;;;;;;;8.95;3.53;;;23.40;28.50;;;;;;6197507;28;80436;-66
2021/04/05 06:27:38;;;;;;;9.40;3.67;;;23.40;28.90;;;;;;6214400;28;87327;-65
2021/04/05 06:30:38;;;;;;;5.40;3.22;;;23.40;28.10;;;;;;6207974;28;80529;-65
2021/04/05 06:33:39;;;;;;;7.78;3.85;;;23.40;27.90;;;;;;6216180;27;80706;-67
2021/04/05 06:36:39;;;;;;;9.63;4.03;;;23.40;28.50;;;;;;6170970;28;82182;-67
2021/04/05 06:39:46;;;;;;;5.93;3.65;;;23.40;29.30;;;;;;6213087;28;80527;-66
2021/04/05 06:42:46;;;;;;;7.07;3.70;;;23.40;27.90;;;;;;6223851;28;80490;-66
2021/04/05 06:45:47;;;;;;;7.32;3.70;;;23.40;28.70;;;;;;6223130;27;82426;-65
2021/04/05 06:48:47;;;;;;;8.43;3.28;;;23.30;28.50;;;;;;6205116;28;81641;-67
2021/04/05 06:51:48;;;;;;;5.75;2.90;;;23.40;29.50;;;;;;6205697;28;81734;-68
2021/04/05 06:54:48;;;;;;;7.00;3.25;;;23.40;28.80;;;;;;6174920;28;80498;-66
2021/04/05 06:57:49;;;;;;;5.47;3.55;;;23.40;29.70;;;;;;6192886;27;80443;-69
2021/04/05 07:00:49;;;;;;;6.43;3.03;;;23.40;29.10;;;;;;6199839;28;81289;-68
2021/04/05 07:03:50;;;;;;;10.98;3.13;;;23.30;30.20;;;;;;6168234;28;80286;-68
2021/04/05 07:06:51;;;;;;;4.35;2.78;;;23.30;29.90;;;;;;6187939;28;80753;-68
2021/04/05 07:09:51;;;;;;;5.47;2.88;;;23.30;28.80;;;;;;6206426;28;80752;-69
2021/04/05 07:12:52;;;;;;;8.00;2.72;;;23.30;29.30;;;;;;6198198;27;80730;-68
2021/04/05 07:15:52;;;;;;;5.72;2.97;;;23.30;28.90;;;;;;6215404;27;81131;-69
2021/04/05 07:18:53;;;;;;;6.43;2.72;;;23.30;28.70;;;;;;6203927;28;82288;-69
2021/04/05 07:21:53;;;;;;;4.15;2.30;;;23.30;28.60;;;;;;6205646;28;82075;-68
2021/04/05 07:24:54;;;;;;;7.30;2.35;;;23.30;28.90;;;;;;6203379;27;86977;-68
2021/04/05 07:27:54;;;;;;;5.75;2.70;;;23.30;28.30;;;;;;6196545;27;82048;-67
2021/04/05 07:30:55;;;;;;;6.10;2.55;;;23.30;28.20;;;;;;6205570;27;81486;-69
2021/04/05 07:33:55;;;;;;;7.70;2.75;;;23.30;28.40;;;;;;6202655;27;80646;-68
2021/04/05 07:36:56;;;;;;;6.47;2.90;;;23.30;28.20;;;;;;6199745;28;81019;-68
2021/04/05 07:39:56;;;;;;;3.80;2.30;;;23.30;27.70;;;;;;6218209;28;80746;-68
2021/04/05 07:42:57;;;;;;;3.92;2.28;;;23.30;27.80;;;;;;6199867;27;80442;-64
2021/04/05 07:45:57;;;;;;;7.63;2.28;;;23.30;27.80;;;;;;6195611;28;81397;-67
2021/04/05 07:48:58;;;;;;;4.53;2.47;;;23.40;28.00;;;;;;6212682;28;81803;-68
2021/04/05 07:51:59;;;;;;;4.30;2.50;;;23.40;28.00;;;;;;6202225;27;82944;-68
2021/04/05 07:54:59;;;;;;;5.45;2.17;;;23.40;28.20;;;;;;6230618;28;80954;-67
2021/04/05 07:58:00;;;;;;;7.05;2.53;;;23.40;28.40;;;;;;6227187;27;80845;-69
2021/04/05 08:01:01;;;;;;;5.90;2.63;;;23.40;28.30;;;;;;6210980;27;81012;-67
2021/04/05 08:04:02;;;;;;;5.90;2.75;;;23.40;28.50;;;;;;6201402;28;82741;-68
2021/04/05 08:07:02;;;;;;;4.35;2.63;;;23.50;28.40;;;;;;6220031;28;81109;-69
2021/04/05 08:10:03;;;;;;;4.10;2.33;;;23.50;28.90;;;;;;6214263;27;80939;-69
2021/04/05 08:13:04;;;;;;;7.75;2.60;;;23.50;28.10;;;;;;6215833;27;80792;-69
2021/04/05 08:16:04;;;;;;;3.83;2.47;;;23.50;28.20;;;;;;6222078;27;81306;-70
2021/04/05 08:19:05;;;;;;;3.72;2.40;;;23.50;28.10;;;;;;6198823;28;81463;-70
2021/04/05 08:22:05;;;;;;;7.25;3.65;;;23.50;28.00;;;;;;6199437;28;81105;-68
2021/04/05 08:25:06;;;;;;;5.47;2.28;;;23.50;27.80;;;;;;6222065;28;81573;-68
2021/04/05 08:28:06;;;;;;;4.50;2.58;;;23.50;27.30;;;;;;6217125;28;81335;-68
2021/04/05 08:31:07;;;;;;;7.30;2.63;;;23.50;27.10;;;;;;6203171;28;80653;-68
2021/04/05 08:34:07;;;;;;;7.30;2.90;;;23.50;27.00;;;;;;6201312;28;80593;-68
2021/04/05 08:37:08;;;;;;;4.03;2.25;;;23.50;26.70;;;;;;6198927;27;81659;-68
2021/04/05 08:40:09;;;;;;;4.00;2.42;;;23.50;26.80;;;;;;6198075;28;80025;-68
2021/04/05 08:43:10;;;;;;;5.18;2.33;;;23.60;26.80;;;;;;6174747;28;81189;-69
2021/04/05 08:46:10;;;;;;;3.97;2.25;;;23.60;26.70;;;;;;6198495;27;83480;-67
2021/04/05 08:49:11;;;;;;;6.78;2.70;;;23.60;26.70;;;;;;6206209;27;80983;-67
2021/04/05 08:52:11;;;;;;;2.67;2.13;;;23.60;26.60;;;;;;6182679;27;80889;-69
2021/04/05 08:55:11;;;;;;;6.78;2.80;;;23.60;26.50;;;;;;6200336;28;80775;-70
2021/04/05 08:58:12;;;;;;;4.05;1.95;;;23.60;26.50;;;;;;6199309;27;81439;-68
2021/04/05 09:01:12;;;;;;;5.18;2.50;;;23.60;26.60;;;;;;6194776;28;81245;-68
2021/04/05 09:04:13;;;;;;;3.97;2.10;;;23.70;26.60;;;;;;6216500;28;82085;-69
2021/04/05 09:07:14;;;;;;;3.25;2.08;;;23.70;26.60;;;;;;6205514;27;80444;-69
2021/04/05 09:10:14;;;;;;;5.32;2.92;;;23.80;26.60;;;;;;6199948;27;81069;-68
2021/04/05 09:13:14;;;;;;;7.93;2.53;;;23.80;26.70;;;;;;6196433;28;86559;-68
2021/04/05 09:16:15;;;;;;;5.80;2.60;;;23.80;26.60;;;;;;6191334;28;80895;-69
2021/04/05 09:19:16;;;;;;;5.22;2.72;;;23.80;26.60;;;;;;6206484;27;81039;-67
2021/04/05 09:22:17;;;;;;;6.65;2.80;;;23.80;26.70;;;;;;6219131;28;80784;-69
2021/04/05 09:25:18;;;;;;;3.80;2.38;;;23.80;26.70;;;;;;6210714;28;80491;-68
2021/04/05 09:28:19;;;;;;;4.65;2.55;;;23.80;26.90;;;;;;6203172;28;81017;-68
2021/04/05 09:31:19;;;;;;;5.45;2.47;;;23.90;28.90;;;;;;6202230;27;80222;-69
2021/04/05 09:34:20;;;;;;;4.45;2.20;;;23.90;28.80;;;;;;6211905;27;80990;-69
2021/04/05 09:37:20;;;;;;;10.90;3.13;;;23.90;27.90;;;;;;6203429;27;80513;-68
2021/04/05 09:40:21;;;;;;;4.35;2.60;;;23.90;29.10;;;;;;6198004;28;80977;-68
2021/04/05 09:43:21;;;;;;;4.85;2.65;;;23.90;29.90;;;;;;6192106;28;81554;-70
2021/04/05 09:46:22;;;;;;;4.20;2.53;;;23.90;29.00;;;;;;6192385;28;81404;-68
2021/04/05 09:49:22;;;;;;;6.45;2.78;;;23.90;30.30;;;;;;6225009;27;80325;-68
2021/04/05 09:52:23;;;;;;;4.90;2.63;;;24.00;31.10;;;;;;6190998;27;81079;-67
2021/04/05 09:55:23;;;;;;;4.47;2.50;;;24.00;31.10;;;;;;6202688;27;80804;-70
2021/04/05 09:58:24;;;;;;;5.22;2.80;;;24.00;30.30;;;;;;6195250;27;81764;-69
2021/04/05 10:01:25;;;;;;;7.43;2.85;;;24.00;31.80;;;;;;6215408;27;83210;-68
2021/04/05 10:04:25;;;;;;;6.38;2.92;;;24.00;31.60;;;;;;6218640;27;80866;-67
2021/04/05 10:07:26;;;;;;;9.27;2.65;;;24.00;33.30;;;;;;6201666;28;80505;-66
2021/04/05 10:10:27;;;;;;;4.85;2.65;;;24.00;32.70;;;;;;6184209;27;80314;-68
2021/04/05 10:13:27;;;;;;;4.05;2.40;;;24.00;33.20;;;;;;6206718;27;80609;-68
2021/04/05 10:16:28;;;;;;;6.57;2.75;;;24.00;33.30;;;;;;6181174;28;80715;-68
2021/04/05 10:19:28;;;;;;;4.95;2.53;;;24.00;32.20;;;;;;6193381;27;80720;-68
2021/04/05 10:22:29;;;;;;;4.28;2.65;;;24.00;31.20;;;;;;6170675;27;80885;-68
2021/04/05 10:25:30;;;;;;;5.40;2.40;;;24.10;31.10;;;;;;6205951;27;80638;-68
2021/04/05 10:28:32;;;;;;;6.28;1.98;;;24.10;30.50;;;;;;6149190;28;85409;-66
2021/04/05 10:31:32;;;;;;;3.65;2.42;;;24.00;30.70;;;;;;6204885;28;81323;-69
2021/04/05 10:34:33;;;;;;;4.60;2.00;;;24.10;31.00;;;;;;6191325;28;84072;-69
2021/04/05 10:37:33;;;;;;;2.80;1.98;;;24.00;30.40;;;;;;6198317;28;83312;-69
2021/04/05 10:40:34;;;;;;;3.05;1.77;;;24.00;30.50;;;;;;6196184;28;81422;-71
2021/04/05 10:43:34;;;;;;;4.47;2.53;;;24.10;30.50;;;;;;6197520;28;80465;-70
2021/04/05 10:46:35;;;;;;;5.45;1.63;;;24.10;30.80;;;;;;6203097;27;80319;-70
2021/04/05 10:49:35;;;;;;;5.38;2.42;;;24.00;30.40;;;;;;6198597;28;80882;-68
2021/04/05 10:52:36;;;;;;;4.60;2.58;;;24.00;29.80;;;;;;6190185;28;81382;-70
2021/04/05 10:55:37;;;;;;;6.18;2.72;;;24.00;29.70;;;;;;6213765;28;81456;-71
2021/04/05 10:58:37;;;;;;;7.65;2.58;;;24.00;29.20;;;;;;6208795;28;81485;-70
2021/04/05 11:01:38;;;;;;;6.45;2.78;;;24.00;29.20;;;;;;6200868;28;89802;-67
2021/04/05 11:04:38;;;;;;;6.57;2.10;;;24.00;29.20;;;;;;6191797;27;80412;-67
2021/04/05 11:07:39;;;;;;;9.23;2.30;;;24.00;29.10;;;;;;6204416;27;81442;-66
2021/04/05 11:10:39;;;;;;;4.68;2.45;;;24.00;29.00;;;;;;6196579;28;81110;-68
2021/04/05 11:13:40;;;;;;;5.75;2.58;;;24.10;29.20;;;;;;6191955;28;80794;-70
2021/04/05 11:16:40;;;;;;;4.82;2.60;;;24.10;29.60;;;;;;6190474;27;81781;-72
2021/04/05 11:19:49;;;;;;;6.05;2.42;;;24.10;29.80;;;;;;6223264;28;82173;-69
2021/04/05 11:22:49;;;;;;;5.18;2.10;;;24.10;29.50;;;;;;6201911;28;81272;-68
2021/04/05 11:25:50;;;;;;;5.68;2.40;;;24.10;29.30;;;;;;6191449;27;80360;-67
2021/04/05 11:28:50;;;;;;;5.32;2.38;;;24.10;28.40;;;;;;6220637;27;81417;-68
2021/04/05 11:31:51;;;;;;;3.00;2.10;;;23.90;26.80;;;;;;6202195;27;80653;-69
2021/04/05 11:34:51;;;;;;;4.97;2.13;;;23.80;25.40;;;;;;6197065;28;80379;-68
2021/04/05 11:37:53;;;;;;;3.72;2.42;;;23.70;25.00;;;;;;6188941;28;80922;-69
2021/04/05 11:40:54;;;;;;;5.28;3.05;;;23.60;25.10;;;;;;6198595;28;81496;-69
2021/04/05 11:43:54;;;;;;;6.38;2.30;;;23.40;24.00;;;;;;6193149;27;80864;-68
2021/04/05 11:46:55;;;;;;;5.13;2.30;;;23.30;23.60;;;;;;6202434;28;83177;-68
2021/04/05 11:49:55;;;;;;;5.75;2.50;;;23.30;24.00;;;;;;6195298;28;80759;-68
2021/04/05 11:52:56;;;;;;;4.68;2.15;;;23.30;24.30;;;;;;6200946;27;81276;-68
2021/04/05 11:55:56;;;;;;;11.18;3.03;;;23.10;23.60;;;;;;6235909;27;80622;-69
2021/04/05 11:58:57;;;;;;;6.22;2.90;;;22.90;22.90;;;;;;6216351;27;80357;-68
2021/04/05 12:01:57;;;;;;;3.97;2.40;;;22.80;23.10;;;;;;6220964;27;82051;-68
2021/04/05 12:04:58;;;;;;;6.32;2.05;;;22.80;22.80;;;;;;6206321;27;80590;-68
2021/04/05 12:07:58;;;;;;;3.15;2.08;;;22.60;23.00;;;;;;6201644;28;80667;-68
2021/04/05 12:11:00;;;;;;;3.35;1.92;;;22.60;23.30;;;;;;6217278;28;80885;-68
2021/04/05 12:14:00;;;;;;;4.85;2.17;;;22.30;23.20;;;;;;6198574;27;80567;-68
2021/04/05 12:17:01;;;;;;;7.38;2.42;;;22.20;23.60;;;;;;6202033;27;80956;-67
2021/04/05 12:20:02;;;;;;;4.13;2.38;;;22.30;23.50;;;;;;6194002;27;82203;-68
2021/04/05 12:23:03;;;;;;;8.45;1.90;;;22.30;23.60;;;;;;6214789;28;80675;-68
2021/04/05 12:26:03;;;;;;;3.80;2.28;;;22.20;23.60;;;;;;6201086;28;80354;-68
2021/04/05 12:29:04;;;;;;;6.90;3.17;;;22.20;23.50;;;;;;6198350;28;81611;-68
2021/04/05 12:32:04;;;;;;;4.45;2.85;;;22.30;23.90;;;;;;6191645;27;80378;-68
2021/04/05 12:35:05;;;;;;;3.25;2.30;;;22.20;23.80;;;;;;6196360;28;83610;-68
2021/04/05 12:38:06;;;;;;;5.15;2.05;;;22.10;23.90;;;;;;6186385;28;81172;-67
2021/04/05 12:41:06;;;;;;;3.95;1.90;;;22.00;23.80;;;;;;6214263;27;80519;-68
2021/04/05 12:44:07;;;;;;;3.25;2.05;;;22.10;23.70;;;;;;6200778;27;81920;-68
2021/04/05 12:47:07;;;;;;;2.78;2.20;;;22.10;23.80;;;;;;6187305;27;81750;-68
2021/04/05 12:50:08;;;;;;;10.13;2.35;;;22.10;23.50;;;;;;6201447;28;80654;-68
2021/04/05 12:53:09;;;;;;;5.13;2.83;;;21.90;23.60;;;;;;6201703;28;80477;-67
2021/04/05 12:56:09;;;;;;;4.20;2.25;;;21.90;23.70;;;;;;6207378;27;80444;-67
2021/04/05 12:59:10;;;;;;;4.10;2.40;;;21.80;23.60;;;;;;6197602;27;81649;-68
2021/04/05 13:02:10;;;;;;;3.83;2.15;;;21.80;23.60;;;;;;6207820;28;81036;-68
2021/04/05 13:05:11;;;;;;;7.55;3.42;;;21.70;23.50;;;;;;6220671;28;81097;-68
2021/04/05 13:08:11;;;;;;;6.80;2.80;;;21.70;23.30;;;;;;6192526;27;80191;-67
2021/04/05 13:11:12;;;;;;;4.70;2.30;;;21.70;23.60;;;;;;6200903;28;80789;-68
2021/04/05 13:14:12;;;;;;;3.45;2.40;;;21.70;24.40;;;;;;6213620;28;81639;-67
2021/04/05 13:17:13;;;;;;;6.05;2.47;;;21.70;23.80;;;;;;6218854;28;81248;-67
2021/04/05 13:20:14;;;;;;;5.97;2.40;;;21.70;23.70;;;;;;6202925;28;80429;-67
2021/04/05 13:23:14;;;;;;;4.18;2.28;;;21.90;24.00;;;;;;6200871;27;80801;-67
2021/04/05 13:26:15;;;;;;;4.47;2.10;;;21.70;23.80;;;;;;6203140;28;80419;-67
2021/04/05 13:29:15;;;;;;;5.43;2.65;;;21.90;23.70;;;;;;6195534;28;80745;-67
2021/04/05 13:32:16;;;;;;;4.25;2.50;;;22.00;23.90;;;;;;6202578;28;82834;-67
2021/04/05 13:35:16;;;;;;;5.93;2.10;;;22.00;23.50;;;;;;6194651;28;80408;-68
2021/04/05 13:38:17;;;;;;;5.43;2.67;;;22.00;23.30;;;;;;6201872;27;81761;-67
2021/04/05 13:41:17;;;;;;;4.00;2.35;;;22.00;23.20;;;;;;6196845;27;80690;-68
2021/04/05 13:44:18;;;;;;;4.50;2.38;;;22.00;23.30;;;;;;6197010;27;81498;-68
2021/04/05 13:47:19;;;;;;;4.70;2.47;;;22.00;23.40;;;;;;6204684;27;80722;-69
2021/04/05 13:50:19;;;;;;;5.88;2.70;;;21.80;23.20;;;;;;6206032;28;86684;-68
2021/04/05 13:53:20;;;;;;;5.53;2.58;;;21.60;23.70;;;;;;6210647;28;82068;-68
2021/04/05 13:56:20;;;;;;;4.50;2.08;;;21.80;23.30;;;;;;6215167;27;80652;-68
2021/04/05 13:59:21;;;;;;;4.18;2.53;;;21.80;23.60;;;;;;6197986;27;80852;-68
2021/04/05 14:02:21;;;;;;;5.38;2.28;;;21.90;23.30;;;;;;6190573;28;80495;-69
2021/04/05 14:05:22;;;;;;;5.95;2.42;;;21.90;23.40;;;;;;6203679;28;80949;-69
2021/04/05 14:08:22;;;;;;;6.35;2.72;;;21.90;23.50;;;;;;6204218;28;81175;-69
2021/04/05 14:11:23;;;;;;;5.22;3.15;;;22.00;23.70;;;;;;6206184;28;83255;-69
2021/04/05 14:14:23;;;;;;;5.05;2.70;;;22.00;23.70;;;;;;6196301;28;81055;-67
2021/04/05 14:17:24;;;;;;;4.45;2.45;;;22.00;23.80;;;;;;6182000;28;82148;-68
2021/04/05 14:20:25;;;;;;;5.45;2.78;;;22.00;23.50;;;;;;6198128;28;83670;-67
2021/04/05 14:23:26;;;;;;;6.38;4.00;;;21.90;23.70;;;;;;6178455;28;81622;-69
2021/04/05 14:26:26;;;;;;;6.57;3.00;;;21.90;23.60;;;;;;6205323;28;80375;-68
2021/04/05 14:29:27;;;;;;;6.80;3.25;;;21.90;23.90;;;;;;6217938;27;81309;-69
2021/04/05 14:32:29;;;;;;;5.95;2.45;;;21.90;23.80;;;;;;6192454;28;80715;-68
2021/04/05 14:35:29;;;;;;;6.13;2.20;;;22.00;23.80;;;;;;6163775;28;81333;-68
2021/04/05 14:38:30;;;;;;;5.18;2.45;;;22.00;23.70;;;;;;6194199;28;81218;-69
2021/04/05 14:41:31;;;;;;;5.90;2.58;;;21.90;23.70;;;;;;6168183;28;80615;-69
2021/04/05 14:44:31;;;;;;;4.90;2.90;;;21.90;23.70;;;;;;6217177;27;82180;-68
2021/04/05 14:47:32;;;;;;;5.80;2.60;;;21.90;23.80;;;;;;6188598;28;81332;-68
2021/04/05 14:50:32;;;;;;;3.92;2.50;;;21.90;23.90;;;;;;6207709;28;82407;-68
2021/04/05 14:53:33;;;;;;;4.05;2.85;;;21.80;23.70;;;;;;6203836;28;80446;-69
2021/04/05 14:56:33;;;;;;;8.75;3.50;;;21.80;23.70;;;;;;6226190;27;80137;-69
2021/04/05 14:59:34;;;;;;;6.90;3.03;;;21.70;23.90;;;;;;6222267;28;80479;-69
2021/04/05 15:02:34;;;;;;;3.65;2.40;;;21.50;23.90;;;;;;6186903;27;80798;-69
2021/04/05 15:05:35;;;;;;;6.68;3.33;;;21.50;23.80;;;;;;6203453;27;80634;-68
2021/04/05 15:08:36;;;;;;;3.50;2.67;;;21.50;23.70;;;;;;6208923;27;80845;-69
2021/04/05 15:11:36;;;;;;;7.07;2.83;;;21.60;23.80;;;;;;6217548;27;80425;-67
2021/04/05 15:14:37;;;;;;;7.63;3.83;;;21.50;23.90;;;;;;6200977;28;81642;-69
2021/04/05 15:17:37;;;;;;;5.38;2.95;;;21.40;23.90;;;;;;6201594;27;80905;-68
2021/04/05 15:20:38;;;;;;;7.25;2.78;;;21.30;23.80;;;;;;6204859;27;82079;-68
2021/04/05 15:23:38;;;;;;;7.65;2.60;;;21.20;23.80;;;;;;6191125;27;80316;-69
2021/04/05 15:26:41;;;;;;;10.18;3.35;;;21.30;24.00;;;;;;6205263;27;80943;-67
2021/04/05 15:29:44;;;;;;;4.63;2.60;;;21.30;23.90;;;;;;6202801;27;80795;-68
2021/04/05 15:32:45;;;;;;;4.95;2.60;;;21.30;24.00;;;;;;6198017;28;80573;-68
2021/04/05 15:35:45;;;;;;;4.45;2.88;;;21.30;23.90;;;;;;6198761;27;81700;-68
2021/04/05 15:38:46;;;;;;;9.48;4.38;;;21.30;24.00;;;;;;6193360;28;81285;-68